createdAt,value
2023-02-07T00:01:49.086Z,0.90
2023-02-07T00:04:16.544Z,0.40
2023-02-07T00:06:43.789Z,0.40
2023-02-07T00:09:12.343Z,0.50
2023-02-07T00:11:40.936Z,0.70
2023-02-07T00:14:10.834Z,0.40
2023-02-07T00:16:38.483Z,0.90
2023-02-07T00:19:05.952Z,0.50
2023-02-07T00:21:33.144Z,0.40
2023-02-07T00:24:00.660Z,0.40
2023-02-07T00:26:28.524Z,0.40
2023-02-07T00:28:57.561Z,0.40
2023-02-07T00:31:29.166Z,0.50
2023-02-07T00:34:00.589Z,0.50
2023-02-07T00:36:29.922Z,0.50
2023-02-07T00:38:59.060Z,0.50
2023-02-07T00:41:27.597Z,0.50
2023-02-07T00:43:55.587Z,0.50
2023-02-07T00:46:24.493Z,0.50
2023-02-07T00:48:53.970Z,0.50
2023-02-07T00:51:21.405Z,0.50
2023-02-07T00:53:48.874Z,0.60
2023-02-07T00:56:16.174Z,0.50
2023-02-07T00:58:43.672Z,0.50
2023-02-07T01:01:10.976Z,0.50
2023-02-07T01:03:38.763Z,0.50
2023-02-07T01:06:06.752Z,0.50
2023-02-07T01:08:35.042Z,0.50
2023-02-07T01:11:08.136Z,0.60
2023-02-07T01:13:38.040Z,0.40
2023-02-07T01:16:05.783Z,0.40
2023-02-07T01:18:33.318Z,0.40
2023-02-07T01:21:02.506Z,0.40
2023-02-07T01:23:29.873Z,0.90
2023-02-07T01:25:57.012Z,0.50
2023-02-07T01:28:24.450Z,0.40
2023-02-07T01:30:51.664Z,0.30
2023-02-07T01:33:19.195Z,0.40
2023-02-07T01:35:47.193Z,0.20
2023-02-07T01:38:16.080Z,0.20
2023-02-07T01:40:43.696Z,0.50
2023-02-07T01:43:22.582Z,0.30
2023-02-07T01:45:49.918Z,0.70
2023-02-07T01:48:25.184Z,0.10
2023-02-07T01:50:55.417Z,0.60
2023-02-07T01:53:25.553Z,0.60
2023-02-07T01:55:57.109Z,0.60
2023-02-07T01:58:25.768Z,0.10
2023-02-07T02:00:53.029Z,0.10
2023-02-07T02:03:20.716Z,0.10
2023-02-07T02:05:50.224Z,0.20
2023-02-07T02:08:17.944Z,0.20
2023-02-07T02:10:51.600Z,0.20
2023-02-07T02:13:29.161Z,0.20
2023-02-07T02:16:05.190Z,0.20
2023-02-07T02:18:57.305Z,0.20
2023-02-07T02:21:39.531Z,0.20
2023-02-07T02:24:44.080Z,0.20
2023-02-07T02:27:20.637Z,0.20
2023-02-07T02:30:12.136Z,0.30
2023-02-07T02:33:02.304Z,0.20
2023-02-07T02:35:57.590Z,0.20
2023-02-07T02:38:49.480Z,0.20
2023-02-07T02:41:27.118Z,0.20
2023-02-07T02:43:57.760Z,0.20
2023-02-07T02:46:30.152Z,0.20
2023-02-07T02:49:00.541Z,0.20
2023-02-07T02:51:32.220Z,0.20
2023-02-07T02:54:01.391Z,0.30
2023-02-07T02:56:58.637Z,0.50
2023-02-07T02:59:40.178Z,0.60
2023-02-07T03:02:13.425Z,0.30
2023-02-07T03:05:07.258Z,0.30
2023-02-07T03:08:06.493Z,0.60
2023-02-07T03:10:56.516Z,0.30
2023-02-07T03:13:36.264Z,0.30
2023-02-07T03:16:24.641Z,0.30
2023-02-07T03:18:56.746Z,0.30
2023-02-07T03:21:41.614Z,0.40
2023-02-07T03:24:19.736Z,0.40
2023-02-07T03:26:50.984Z,0.40
2023-02-07T03:29:21.155Z,0.70
2023-02-07T03:31:51.138Z,0.40
2023-02-07T03:34:23.645Z,0.60
2023-02-07T03:37:04.829Z,0.40
2023-02-07T03:39:33.400Z,0.40
2023-02-07T03:42:07.036Z,0.40
2023-02-07T03:44:36.382Z,0.50
2023-02-07T03:47:04.905Z,0.90
2023-02-07T03:49:32.401Z,0.50
2023-02-07T03:51:59.746Z,0.50
2023-02-07T03:54:27.244Z,0.50
2023-02-07T03:56:54.368Z,0.60
2023-02-07T03:59:21.862Z,0.50
2023-02-07T04:01:50.010Z,0.60
2023-02-07T04:04:17.429Z,0.60
2023-02-07T04:06:44.712Z,0.50
2023-02-07T04:09:12.175Z,0.60
2023-02-07T04:11:39.601Z,0.60
2023-02-07T04:14:07.424Z,0.60
2023-02-07T04:16:34.572Z,0.60
2023-02-07T04:19:02.122Z,0.60
2023-02-07T04:21:29.324Z,0.60
2023-02-07T04:23:56.925Z,0.70
2023-02-07T04:26:24.226Z,0.60
2023-02-07T04:28:51.875Z,0.60
2023-02-07T04:31:19.173Z,0.60
2023-02-07T04:33:47.754Z,0.60
2023-02-07T04:36:14.876Z,0.60
2023-02-07T04:38:42.606Z,0.70
2023-02-07T04:41:09.814Z,0.60
2023-02-07T04:43:37.933Z,0.60
2023-02-07T04:46:06.901Z,0.60
2023-02-07T04:48:36.599Z,0.60
2023-02-07T04:51:04.423Z,0.60
2023-02-07T04:53:31.937Z,0.60
2023-02-07T04:55:59.084Z,0.60
2023-02-07T04:58:26.540Z,0.60
2023-02-07T05:00:54.590Z,0.50
2023-02-07T05:03:22.247Z,0.80
2023-02-07T05:05:49.801Z,0.60
2023-02-07T05:08:17.313Z,0.50
2023-02-07T05:10:44.462Z,0.60
2023-02-07T05:13:11.925Z,0.50
2023-02-07T05:15:39.271Z,0.50
2023-02-07T05:18:07.242Z,0.50
2023-02-07T05:20:34.469Z,0.70
2023-02-07T05:23:02.028Z,0.60
2023-02-07T05:25:29.131Z,0.50
2023-02-07T05:27:56.710Z,0.50
2023-02-07T05:30:23.985Z,0.50
2023-02-07T05:33:06.400Z,0.60
2023-02-07T05:36:00.665Z,0.50
2023-02-07T05:38:28.134Z,0.70
2023-02-07T05:40:55.268Z,0.60
2023-02-07T05:43:22.741Z,0.80
2023-02-07T05:45:49.907Z,0.60
2023-02-07T05:48:17.944Z,0.60
2023-02-07T05:50:45.181Z,0.50
2023-02-07T05:53:13.096Z,0.70
2023-02-07T05:55:41.484Z,0.60
2023-02-07T05:58:09.000Z,0.60
2023-02-07T06:00:36.680Z,0.60
2023-02-07T06:03:04.312Z,0.60
2023-02-07T06:05:33.262Z,0.50
2023-02-07T06:08:01.209Z,0.60
2023-02-07T06:10:28.429Z,0.50
2023-02-07T06:12:55.902Z,0.70
2023-02-07T06:15:23.242Z,0.50
2023-02-07T06:17:50.763Z,0.50
2023-02-07T06:20:18.102Z,0.60
2023-02-07T06:22:45.580Z,0.60
2023-02-07T06:25:12.884Z,0.60
2023-02-07T06:27:41.313Z,0.60
2023-02-07T06:30:11.834Z,1.10
2023-02-07T06:32:39.718Z,0.60
2023-02-07T06:35:08.009Z,0.80
2023-02-07T06:37:35.622Z,0.60
2023-02-07T06:40:03.409Z,0.60
2023-02-07T06:42:31.036Z,0.60
2023-02-07T06:44:58.210Z,0.80
2023-02-07T06:47:25.708Z,0.70
2023-02-07T06:49:52.870Z,0.70
2023-02-07T06:52:20.561Z,0.70
2023-02-07T06:54:47.906Z,0.70
2023-02-07T06:57:15.653Z,0.70
2023-02-07T06:59:42.915Z,0.70
2023-02-07T07:02:13.588Z,0.80
2023-02-07T07:04:40.987Z,0.80
2023-02-07T07:07:08.722Z,0.80
2023-02-07T07:09:35.845Z,0.80
2023-02-07T07:12:04.790Z,0.90
2023-02-07T07:14:32.797Z,0.90
2023-02-07T07:17:00.552Z,0.90
2023-02-07T07:19:28.051Z,1.10
2023-02-07T07:21:55.780Z,1.00
2023-02-07T07:24:22.970Z,1.10
2023-02-07T07:26:50.385Z,1.10
2023-02-07T07:29:19.812Z,1.10
2023-02-07T07:31:47.653Z,1.10
2023-02-07T07:34:14.973Z,1.10
2023-02-07T07:36:42.746Z,1.50
2023-02-07T07:39:10.720Z,1.20
2023-02-07T07:41:38.205Z,1.20
2023-02-07T07:44:05.637Z,1.30
2023-02-07T07:46:33.262Z,1.30
2023-02-07T07:49:00.608Z,1.40
2023-02-07T07:51:28.008Z,1.40
2023-02-07T07:53:55.300Z,1.50
2023-02-07T07:56:22.726Z,1.40
2023-02-07T07:58:50.146Z,1.40
2023-02-07T08:01:17.635Z,1.40
2023-02-07T08:03:44.955Z,1.50
2023-02-07T08:06:12.400Z,1.50
2023-02-07T08:08:40.311Z,1.60
2023-02-07T08:11:09.739Z,1.60
2023-02-07T08:13:37.717Z,1.60
2023-02-07T08:16:11.070Z,1.60
2023-02-07T08:18:38.305Z,1.60
2023-02-07T08:21:05.932Z,1.70
2023-02-07T08:23:33.936Z,1.70
2023-02-07T08:26:01.579Z,1.80
2023-02-07T08:28:29.523Z,1.90
2023-02-07T08:31:01.495Z,1.90
2023-02-07T08:33:30.280Z,1.90
2023-02-07T08:35:58.679Z,2.00
2023-02-07T08:38:25.834Z,2.00
2023-02-07T08:40:53.323Z,2.10
2023-02-07T08:43:20.523Z,2.10
2023-02-07T08:45:49.408Z,2.10
2023-02-07T08:48:16.701Z,2.10
2023-02-07T08:50:44.196Z,2.20
2023-02-07T08:53:12.063Z,2.20
2023-02-07T08:55:42.632Z,2.30
2023-02-07T08:58:10.212Z,2.30
2023-02-07T09:00:38.537Z,2.30
2023-02-07T09:03:06.017Z,2.30
2023-02-07T09:05:33.960Z,2.40
2023-02-07T09:08:01.754Z,2.40
2023-02-07T09:10:29.357Z,2.40
2023-02-07T09:12:56.615Z,2.40
2023-02-07T09:15:26.845Z,2.40
2023-02-07T09:17:54.081Z,2.40
2023-02-07T09:20:21.591Z,2.40
2023-02-07T09:23:07.435Z,2.60
2023-02-07T09:25:37.759Z,2.40
2023-02-07T09:28:05.282Z,2.40
2023-02-07T09:30:32.899Z,2.40
2023-02-07T09:33:00.169Z,2.40
2023-02-07T09:35:27.652Z,2.40
2023-02-07T09:37:55.473Z,2.60
2023-02-07T09:40:23.387Z,2.60
2023-02-07T09:43:03.789Z,2.60
2023-02-07T09:45:34.827Z,2.70
2023-02-07T09:48:12.044Z,2.70
2023-02-07T09:50:47.907Z,2.70
2023-02-07T09:53:30.864Z,2.70
2023-02-07T09:56:00.068Z,2.80
2023-02-07T09:58:35.231Z,2.80
2023-02-07T10:01:18.809Z,2.80
2023-02-07T10:04:01.365Z,2.80
2023-02-07T10:06:28.936Z,2.80
2023-02-07T10:08:59.763Z,2.80
2023-02-07T10:11:44.003Z,2.80
2023-02-07T10:14:36.195Z,2.90
2023-02-07T10:17:12.190Z,2.80
2023-02-07T10:19:58.790Z,2.90
2023-02-07T10:22:33.842Z,2.90
2023-02-07T10:25:15.984Z,3.00
2023-02-07T10:28:00.347Z,3.00
2023-02-07T10:30:30.433Z,3.00
2023-02-07T10:33:11.309Z,3.00
2023-02-07T10:35:40.007Z,3.10
2023-02-07T10:38:33.236Z,3.10
2023-02-07T10:41:21.248Z,3.10
2023-02-07T10:43:49.239Z,3.10
2023-02-07T10:46:22.284Z,3.20
2023-02-07T10:48:50.314Z,3.20
2023-02-07T10:51:31.613Z,3.30
2023-02-07T10:54:08.699Z,3.40
2023-02-07T10:56:42.862Z,3.50
2023-02-07T10:59:35.299Z,3.50
2023-02-07T11:02:22.048Z,3.50
2023-02-07T11:04:49.677Z,3.50
2023-02-07T11:07:16.905Z,3.50
2023-02-07T11:09:44.407Z,3.60
2023-02-07T11:12:25.354Z,3.60
2023-02-07T11:15:05.535Z,3.70
2023-02-07T11:17:35.137Z,3.70
2023-02-07T11:20:05.849Z,3.70
2023-02-07T11:22:34.036Z,3.70
2023-02-07T11:25:06.932Z,3.70
2023-02-07T11:27:39.673Z,3.70
2023-02-07T11:30:10.269Z,3.70
2023-02-07T11:32:38.962Z,3.80
2023-02-07T11:35:09.781Z,3.80
2023-02-07T11:37:42.064Z,3.80
2023-02-07T11:40:22.761Z,3.80
2023-02-07T11:43:16.074Z,3.80
2023-02-07T11:45:53.054Z,3.80
2023-02-07T11:48:25.631Z,3.80
2023-02-07T11:50:55.775Z,3.80
2023-02-07T11:53:37.800Z,3.90
2023-02-07T11:56:06.321Z,3.90
2023-02-07T11:58:46.737Z,3.90
2023-02-07T12:01:18.060Z,4.00
2023-02-07T12:03:52.992Z,4.00
2023-02-07T12:06:23.346Z,4.00
2023-02-07T12:08:52.237Z,3.90
2023-02-07T12:11:28.423Z,3.90
2023-02-07T12:14:10.981Z,3.90
2023-02-07T12:16:51.214Z,3.90
2023-02-07T12:19:26.969Z,3.90
2023-02-07T12:22:00.004Z,3.90
2023-02-07T12:24:40.862Z,3.90
2023-02-07T12:27:16.771Z,4.00
2023-02-07T12:29:43.974Z,3.90
2023-02-07T12:32:33.396Z,3.90
2023-02-07T12:35:06.484Z,3.90
2023-02-07T12:37:52.544Z,3.90
2023-02-07T12:40:19.774Z,3.90
2023-02-07T12:42:57.675Z,3.80
2023-02-07T12:45:37.157Z,3.80
2023-02-07T12:48:10.528Z,3.90
2023-02-07T12:50:46.760Z,3.80
2023-02-07T12:53:45.961Z,3.90
2023-02-07T12:56:16.102Z,3.90
2023-02-07T12:58:50.006Z,4.00
2023-02-07T13:01:41.681Z,4.00
2023-02-07T13:04:31.719Z,4.10
2023-02-07T13:07:25.103Z,4.10
2023-02-07T13:10:03.251Z,4.10
2023-02-07T13:12:39.262Z,4.00
2023-02-07T13:15:36.707Z,4.00
2023-02-07T13:18:38.260Z,4.00
2023-02-07T13:21:17.933Z,4.00
2023-02-07T13:23:48.415Z,4.00
2023-02-07T13:26:20.500Z,4.00
2023-02-07T13:28:57.515Z,4.00
2023-02-07T13:31:37.674Z,4.00
2023-02-07T13:34:05.166Z,4.00
2023-02-07T13:36:43.185Z,4.00
2023-02-07T13:39:13.335Z,4.10
2023-02-07T13:41:53.079Z,4.10
2023-02-07T13:44:39.119Z,4.10
2023-02-07T13:47:37.334Z,4.10
2023-02-07T13:50:14.005Z,4.00
2023-02-07T13:53:11.483Z,4.00
2023-02-07T13:55:41.559Z,3.90
2023-02-07T13:58:52.880Z,3.90
2023-02-07T14:01:26.051Z,3.90
2023-02-07T14:04:06.816Z,3.90
2023-02-07T14:06:45.798Z,3.90
2023-02-07T14:09:32.686Z,3.90
2023-02-07T14:12:23.418Z,3.90
2023-02-07T14:15:02.186Z,3.90
2023-02-07T14:17:30.220Z,3.90
2023-02-07T14:19:58.868Z,3.90
2023-02-07T14:22:36.974Z,3.80
2023-02-07T14:25:07.564Z,3.80
2023-02-07T14:27:38.870Z,3.80
2023-02-07T14:30:12.273Z,3.80
2023-02-07T14:33:04.064Z,3.80
2023-02-07T14:35:36.396Z,3.70
2023-02-07T14:38:19.415Z,3.70
2023-02-07T14:40:46.937Z,3.60
2023-02-07T14:43:14.069Z,3.70
2023-02-07T14:45:58.253Z,3.60
2023-02-07T14:48:48.533Z,3.60
2023-02-07T14:51:41.998Z,3.60
2023-02-07T14:54:24.888Z,3.60
2023-02-07T14:57:25.781Z,3.50
2023-02-07T15:00:26.791Z,3.50
2023-02-07T15:02:56.692Z,3.50
2023-02-07T15:05:27.025Z,3.40
2023-02-07T15:08:02.354Z,3.40
2023-02-07T15:10:54.212Z,3.40
2023-02-07T15:13:43.777Z,3.40
2023-02-07T15:16:17.898Z,3.40
2023-02-07T15:18:51.850Z,3.30
2023-02-07T15:21:27.946Z,3.40
2023-02-07T15:24:06.263Z,3.30
2023-02-07T15:26:35.313Z,3.30
2023-02-07T15:29:05.871Z,3.30
2023-02-07T15:31:40.955Z,3.30
2023-02-07T15:34:16.222Z,3.30
2023-02-07T15:36:46.060Z,3.30
2023-02-07T15:39:18.270Z,3.20
2023-02-07T15:41:46.408Z,3.20
2023-02-07T15:44:28.936Z,3.10
2023-02-07T15:47:02.033Z,3.10
2023-02-07T15:49:41.195Z,3.10
2023-02-07T15:52:22.854Z,3.10
2023-02-07T15:54:52.546Z,3.10
2023-02-07T15:57:26.383Z,3.10
2023-02-07T15:59:55.810Z,3.10
2023-02-07T16:02:35.944Z,3.10
2023-02-07T16:05:26.046Z,3.10
2023-02-07T16:07:54.253Z,3.00
2023-02-07T16:10:24.715Z,3.00
2023-02-07T16:12:59.206Z,3.00
2023-02-07T16:15:32.362Z,2.90
2023-02-07T16:18:01.156Z,2.90
2023-02-07T16:20:31.370Z,2.90
2023-02-07T16:23:01.960Z,2.90
2023-02-07T16:25:34.717Z,2.90
2023-02-07T16:28:03.876Z,2.80
2023-02-07T16:30:37.934Z,2.90
2023-02-07T16:33:13.116Z,2.80
2023-02-07T16:35:40.632Z,2.80
2023-02-07T16:38:07.755Z,2.80
2023-02-07T16:40:35.224Z,2.80
2023-02-07T16:43:05.708Z,2.80
2023-02-07T16:45:33.322Z,2.90
2023-02-07T16:48:00.924Z,2.80
2023-02-07T16:50:30.803Z,2.80
2023-02-07T16:52:59.417Z,2.80
2023-02-07T16:55:28.388Z,2.80
2023-02-07T16:57:57.589Z,2.80
2023-02-07T17:00:26.589Z,2.80
2023-02-07T17:02:53.981Z,2.70
2023-02-07T17:05:22.709Z,2.70
2023-02-07T17:07:50.961Z,2.70
2023-02-07T17:10:27.470Z,2.80
2023-02-07T17:12:55.296Z,2.70
2023-02-07T17:15:23.191Z,2.70
2023-02-07T17:17:52.133Z,2.60
2023-02-07T17:20:31.725Z,2.70
2023-02-07T17:22:59.239Z,2.60
2023-02-07T17:25:28.974Z,2.60
2023-02-07T17:27:56.948Z,2.60
2023-02-07T17:30:26.361Z,2.60
2023-02-07T17:32:55.602Z,2.60
2023-02-07T17:35:23.679Z,2.60
2023-02-07T17:37:50.825Z,2.50
2023-02-07T17:40:36.910Z,2.50
2023-02-07T17:43:05.198Z,2.60
2023-02-07T17:45:36.106Z,2.50
2023-02-07T17:48:05.027Z,2.50
2023-02-07T17:50:35.485Z,2.50
2023-02-07T17:53:03.514Z,2.50
2023-02-07T17:55:32.333Z,2.50
2023-02-07T17:58:00.610Z,2.50
2023-02-07T18:00:31.794Z,2.50
2023-02-07T18:02:59.035Z,2.50
2023-02-07T18:05:26.883Z,2.50
2023-02-07T18:07:54.363Z,2.50
2023-02-07T18:10:27.893Z,2.50
2023-02-07T18:12:57.340Z,2.50
2023-02-07T18:15:25.837Z,2.50
2023-02-07T18:17:54.124Z,2.50
2023-02-07T18:20:28.075Z,2.40
2023-02-07T18:22:57.397Z,2.50
2023-02-07T18:25:26.657Z,2.50
2023-02-07T18:27:54.894Z,2.40
2023-02-07T18:30:24.677Z,2.40
2023-02-07T18:32:52.446Z,2.40
2023-02-07T18:35:21.335Z,2.40
2023-02-07T18:37:48.824Z,2.40
2023-02-07T18:40:16.539Z,2.40
2023-02-07T18:42:43.921Z,2.40
2023-02-07T18:45:13.681Z,2.40
2023-02-07T18:47:41.851Z,2.30
2023-02-07T18:50:11.009Z,2.40
2023-02-07T18:52:39.210Z,2.40
2023-02-07T18:55:07.100Z,2.30
2023-02-07T18:57:34.394Z,2.30
2023-02-07T19:00:02.378Z,2.40
2023-02-07T19:02:29.575Z,2.30
2023-02-07T19:04:57.102Z,2.40
2023-02-07T19:07:24.503Z,2.30
2023-02-07T19:09:51.912Z,2.30
2023-02-07T19:12:19.124Z,2.30
2023-02-07T19:14:46.613Z,2.30
2023-02-07T19:17:15.766Z,2.40
2023-02-07T19:19:43.585Z,2.30
2023-02-07T19:22:10.840Z,2.30
2023-02-07T19:24:38.315Z,2.40
2023-02-07T19:27:07.219Z,2.40
2023-02-07T19:29:34.662Z,2.30
2023-02-07T19:32:04.915Z,2.40
2023-02-07T19:34:32.819Z,2.40
2023-02-07T19:37:00.009Z,2.40
2023-02-07T19:39:27.406Z,2.40
2023-02-07T19:41:54.904Z,2.40
2023-02-07T19:44:23.466Z,2.40
2023-02-07T19:46:50.673Z,2.30
2023-02-07T19:49:18.134Z,2.30
2023-02-07T19:51:45.346Z,2.40
2023-02-07T19:54:12.729Z,2.30
2023-02-07T19:56:42.381Z,2.40
2023-02-07T19:59:11.003Z,2.30
2023-02-07T20:01:38.454Z,2.40
2023-02-07T20:04:06.343Z,2.40
2023-02-07T20:06:34.831Z,2.30
2023-02-07T20:09:05.340Z,2.40
2023-02-07T20:11:33.211Z,2.30
2023-02-07T20:14:03.497Z,2.40
2023-02-07T20:16:34.483Z,2.30
2023-02-07T20:19:02.673Z,2.30
2023-02-07T20:21:33.091Z,2.30
2023-02-07T20:24:01.381Z,2.40
2023-02-07T20:26:36.643Z,2.40
2023-02-07T20:29:09.499Z,2.40
2023-02-07T20:31:37.780Z,2.30
2023-02-07T20:34:05.892Z,2.40
2023-02-07T20:36:40.943Z,2.30
2023-02-07T20:39:12.522Z,2.30
2023-02-07T20:41:41.674Z,2.40
2023-02-07T20:44:13.730Z,2.30
2023-02-07T20:46:41.756Z,2.30
2023-02-07T20:49:22.859Z,2.30
2023-02-07T20:51:51.897Z,2.40
2023-02-07T20:54:23.169Z,2.40
2023-02-07T20:56:51.863Z,2.30
2023-02-07T20:59:22.804Z,2.40
2023-02-07T21:01:50.091Z,2.40
2023-02-07T21:04:17.953Z,2.40
2023-02-07T21:06:45.131Z,2.40
2023-02-07T21:09:13.828Z,2.40
2023-02-07T21:11:45.167Z,2.30
2023-02-07T21:14:18.925Z,2.40
2023-02-07T21:16:46.752Z,2.40
2023-02-07T21:19:14.917Z,2.40
2023-02-07T21:21:42.702Z,2.30
2023-02-07T21:24:10.271Z,2.30
2023-02-07T21:26:37.517Z,2.30
2023-02-07T21:29:06.183Z,2.30
2023-02-07T21:31:35.913Z,2.30
2023-02-07T21:34:05.064Z,2.30
2023-02-07T21:36:34.516Z,2.30
2023-02-07T21:39:04.619Z,2.30
2023-02-07T21:41:32.262Z,2.30
2023-02-07T21:44:00.167Z,2.30
2023-02-07T21:46:30.071Z,2.20
2023-02-07T21:49:01.637Z,2.20
2023-02-07T21:51:31.407Z,2.20
2023-02-07T21:53:59.747Z,2.20
2023-02-07T21:56:30.002Z,2.10
2023-02-07T21:58:59.608Z,2.20
2023-02-07T22:01:28.852Z,2.10
2023-02-07T22:04:00.501Z,2.10
2023-02-07T22:06:30.540Z,2.10
2023-02-07T22:09:00.379Z,2.10
2023-02-07T22:11:30.384Z,2.10
2023-02-07T22:13:58.356Z,2.10
2023-02-07T22:16:28.416Z,2.10
2023-02-07T22:18:58.001Z,2.10
2023-02-07T22:21:28.681Z,2.10
2023-02-07T22:23:57.372Z,2.10
2023-02-07T22:26:25.563Z,2.10
2023-02-07T22:28:53.436Z,2.10
2023-02-07T22:31:23.709Z,2.10
2023-02-07T22:33:53.418Z,2.10
2023-02-07T22:36:26.675Z,2.10
2023-02-07T22:38:54.838Z,2.00
2023-02-07T22:41:22.406Z,2.00
2023-02-07T22:43:50.477Z,2.00
2023-02-07T22:46:24.113Z,2.00
2023-02-07T22:48:52.705Z,2.00
2023-02-07T22:51:21.329Z,2.00
2023-02-07T22:53:49.964Z,2.00
2023-02-07T22:56:17.287Z,2.00
2023-02-07T22:58:44.923Z,2.00
2023-02-07T23:01:39.443Z,2.00
2023-02-07T23:04:15.335Z,2.00
2023-02-07T23:06:43.077Z,2.00
2023-02-07T23:09:10.797Z,2.00
2023-02-07T23:11:38.252Z,2.00
2023-02-07T23:14:06.652Z,2.00
2023-02-07T23:16:34.835Z,2.00
2023-02-07T23:19:22.574Z,2.00
2023-02-07T23:21:49.809Z,2.00
2023-02-07T23:24:17.190Z,1.90
2023-02-07T23:26:44.526Z,1.90
2023-02-07T23:29:12.298Z,1.90
2023-02-07T23:31:39.581Z,1.90
2023-02-07T23:34:09.406Z,1.80
2023-02-07T23:36:37.526Z,1.80
2023-02-07T23:39:05.961Z,1.80
2023-02-07T23:41:33.255Z,1.80
2023-02-07T23:44:02.615Z,1.80
2023-02-07T23:46:30.773Z,1.80
2023-02-07T23:48:59.164Z,1.80
2023-02-07T23:51:26.995Z,1.80
2023-02-07T23:53:54.479Z,1.80
2023-02-07T23:56:23.246Z,1.80
2023-02-07T23:58:52.146Z,1.80
